Wetterdaten: aktuell Donnerstag, 28.09.2023 19:00
Datum Zeit Temp. I. Temp. A. Feuchte I. Feuchte A. Luftdruck Regen Wind Richtung Richtung Sonnenschein Zeit Regen ET Solar Taupunkt Windchill Windben Empfang
28.09.2023 19:00 24,6 C 17,6 C 58 % 80 % 1018,6 hPa 0,0 l/m 0,0 km/h S-SW 199 0 min 0 min 0,026 mm 0 W/m 14,1 C 17,6 C 0,0 km/h 100,00 %
28.09.2023 18:00 24,6 C 23,9 C 57 % 63 % 1018,3 hPa 0,0 l/m 0,0 km/h S-SW 199 60 min 0 min 0,101 mm 76 W/m 16,4 C 23,9 C 0,0 km/h 98,31 %
28.09.2023 17:05 24,6 C 26,2 C 56 % 47 % 1018,4 hPa 0,0 l/m 0,0 km/h S-SW 199 60 min 0 min 0,204 mm 190 W/m 14,0 C 26,2 C 0,0 km/h 100,00 %
28.09.2023 16:10 24,6 C 26,1 C 55 % 45 % 1018,6 hPa 0,0 l/m 4,6 km/h W 276 60 min 0 min 0,304 mm 367 W/m 13,2 C 26,1 C 9,7 km/h 100,00 %
28.09.2023 15:15 24,6 C 26,1 C 55 % 48 % 1018,9 hPa 0,0 l/m 1,6 km/h S-SW 209 60 min 0 min 0,381 mm 485 W/m 14,2 C 26,1 C 11,3 km/h 100,00 %
28.09.2023 14:20 24,5 C 26,2 C 54 % 44 % 1019,1 hPa 0,0 l/m 2,9 km/h W 276 60 min 0 min 0,407 mm 575 W/m 13,0 C 26,2 C 17,7 km/h 100,00 %
28.09.2023 13:25 24,4 C 24,9 C 54 % 46 % 1019,4 hPa 0,0 l/m 2,1 km/h NW 312 60 min 0 min 0,406 mm 621 W/m 12,5 C 24,9 C 12,9 km/h 100,00 %
28.09.2023 12:30 24,3 C 24,1 C 54 % 50 % 1019,6 hPa 0,0 l/m 4,9 km/h N-NW 333 60 min 0 min 0,356 mm 615 W/m 13,0 C 24,1 C 19,3 km/h 100,00 %
28.09.2023 11:35 24,3 C 23,1 C 55 % 53 % 1019,7 hPa 0,0 l/m 2,9 km/h NW 319 60 min 0 min 0,279 mm 577 W/m 13,0 C 23,1 C 14,5 km/h 100,00 %
28.09.2023 10:40 24,1 C 20,2 C 55 % 65 % 1019,8 hPa 0,0 l/m 0,0 km/h S 175 60 min 0 min 0,102 mm 492 W/m 13,4 C 20,2 C 0,0 km/h 100,00 %
28.09.2023 09:45 24,1 C 15,3 C 54 % 80 % 1019,9 hPa 0,0 l/m 0,0 km/h S-SO 159 15 min 0 min 0,025 mm 367 W/m 11,9 C 15,3 C 0,0 km/h 100,00 %
28.09.2023 08:50 24,0 C 11,9 C 53 % 92 % 1019,7 hPa 0,0 l/m 0,0 km/h S-SO 159 0 min 0 min 0,000 mm 33 W/m 10,6 C 11,9 C 0,0 km/h 100,00 %
28.09.2023 07:55 24,1 C 9,8 C 52 % 91 % 1019,3 hPa 0,0 l/m 0,0 km/h S-SO 159 0 min 0 min 0,000 mm 23 W/m 8,4 C 9,8 C 0,0 km/h 100,00 %
28.09.2023 07:00 24,1 C 10,1 C 55 % 89 % 1018,7 hPa 0,0 l/m 0,0 km/h S-SO 159 0 min 0 min 0,000 mm 7 W/m 8,4 C 10,1 C 0,0 km/h 98,25 %
28.09.2023 06:05 24,2 C 10,8 C 54 % 88 % 1018,3 hPa 0,0 l/m 0,0 km/h S-SO 154 0 min 0 min 0,000 mm 0 W/m 8,9 C 10,8 C 0,0 km/h 100,00 %
28.09.2023 05:10 24,2 C 11,5 C 55 % 85 % 1018,2 hPa 0,0 l/m 0,0 km/h S-SO 154 0 min 0 min 0,026 mm 0 W/m 9,1 C 11,5 C 0,0 km/h 100,00 %
28.09.2023 04:15 24,2 C 14,7 C 55 % 74 % 1018,2 hPa 0,0 l/m 0,0 km/h S-SO 154 0 min 0 min 0,025 mm 0 W/m 10,1 C 14,7 C 0,0 km/h 100,00 %
28.09.2023 03:20 24,2 C 14,8 C 55 % 73 % 1018,5 hPa 0,0 l/m 0,0 km/h S-SW 198 0 min 0 min 0,025 mm 0 W/m 10,0 C 14,8 C 0,0 km/h 100,00 %
28.09.2023 02:25 24,2 C 18,2 C 55 % 60 % 1018,2 hPa 0,0 l/m 0,0 km/h SW 236 0 min 0 min 0,051 mm 0 W/m 10,3 C 18,2 C 0,0 km/h 100,00 %
28.09.2023 01:30 24,1 C 19,8 C 55 % 54 % 1018,4 hPa 0,0 l/m 0,0 km/h S 186 0 min 0 min 0,051 mm 0 W/m 10,2 C 19,8 C 0,0 km/h 100,00 %
28.09.2023 00:35 24,1 C 20,4 C 55 % 52 % 1018,6 hPa 0,0 l/m 0,7 km/h SW 215 0 min 0 min 0,000 mm 0 W/m 10,2 C 20,4 C 14,5 km/h 100,00 %
28.09.2023 00:00 24,1 C 20,6 C 54 % 52 % 1018,7 hPa 0,0 l/m 2,4 km/h O 98 0 min 0 min 0,000 mm 0 W/m 10,4 C 20,6 C 14,5 km/h 100,00 %
_ Min-Zeit 08:10 07:25 08:05 14:30 04:25 - 00:25 - - - - - - 07:10 07:15 00:25 17:20
Minimum _ 23,9 C 9,7 C 51 % 42 % 1018,1 hPa - 0,0 km/h - - - - - - 8,2 C 9,8 C 0,0 km/h 97,39 %
_ Max-Zeit 15:00 14:30 18:55 08:05 09:35 00:00 15:35 - - 09:35 00:00 14:00 12:55 17:50 14:30 11:50 00:00
Maximum _ 24,6 C 26,3 C 58 % 92 % 1020,0 hPa 0,0 l/m 7,2 km/h
W
- - 5 min 0 min 0,407 mm 624 W/m 16,6 C 26,3 C 29,0 km/h
W
100,00 %
Durchschnitt _ 24,3 C 18,9 C 55 % 65 % 1018,9 hPa #0,0 l/m 0,8 km/h NW - #8:30 h #0 min. #2,769 mm 336 W/m 11,6 C 18,9 C 4,9 km/h 99,78 %